M I D A S
Marine Information and Data Acquisition System
Tripno 859 of the Zeeleeuw from 2005-03-09 07:26:14 to 2005-03-09 16:05:02
Back to CruiseResearch ActivitiesStationsMapUnderway DataData graphs

EquipmentUnitsComment
TimeDGPSUTC
LatitudeDGPSDM.mWGS84
LongitudeDGPSDM.mWGS84
TemperatureSBE03/SBE38deg celciusITS90
ConductivitySBE21S/mITS90
SalinitySBE21 Practical Salinity Units
ChlorophylAChelsea fluorimeterg/lCalibrated in Aceton
Missing or incorrect values are displayed as -999
Sea surface data collected by the RV Zeeleeuw from 2005-03-09 07:26:29 to 2005-03-09 16:16:56
Time Latitude Longitude Temperature Conductivity Salinity ChlorophylA
2005-03-09 07:27:34 51°13.617 2°56.027 12.2187 3.767144 28.936338 -0.848668
2005-03-09 07:28:34 51°13.652 2°55.93 12.2719 3.767671 28.936053 -0.882377
2005-03-09 07:29:34 51°13.701 2°55.832 5.1869 3.716768 28.352344 -0.781249
2005-03-09 07:30:35 51°13.733 2°55.724 3.7897 2.379681 24.194362 3.129042
2005-03-09 07:31:34 51°13.742 2°55.715 3.7778 2.214561 22.834861 4.207742
2005-03-09 07:32:34 51°13.746 2°55.703 3.6172 1.962963 20.05835 5.4887
2005-03-09 07:33:34 51°13.83 2°55.637 3.6568 2.00035 20.519526 6.129178
2005-03-09 07:34:34 51°13.946 2°55.553 3.6037 1.843897 18.791925 5.219024
2005-03-09 07:35:34 51°14.076 2°55.46 3.5253 1.947002 19.987727 4.308871
2005-03-09 07:36:34 51°14.212 2°55.328 3.4872 1.971681 20.303598 3.702101
2005-03-09 07:37:34 51°14.332 2°55.125 3.5346 1.969895 20.29468 3.938067
2005-03-09 07:38:34 51°14.47 2°54.894 3.5749 2.096986 21.447307 3.466136
2005-03-09 07:39:34 51°14.627 2°54.655 3.3487 2.510281 26.475529 2.724529
2005-03-09 07:40:34 51°14.793 2°54.44 3.2709 2.659532 28.369243 2.589691
2005-03-09 07:41:34 51°14.964 2°54.233 3.2751 2.681414 28.662557 3.398717
2005-03-09 07:42:34 51°15.134 2°54.037 3.2861 2.682992 28.663675 5.320153
2005-03-09 07:43:34 51°15.325 2°53.886 3.2329 2.690566 28.779786 5.151606
2005-03-09 07:44:34 51°15.509 2°53.718 3.2632 2.709924 29.031862 2.994204
2005-03-09 07:45:34 51°15.692 2°53.552 3.2782 2.725706 29.200245 2.522272
2005-03-09 07:46:34 51°15.874 2°53.392 3.2277 2.726548 29.22959 3.533554
2005-03-09 07:47:34 51°16.056 2°53.236 3.2092 2.724759 29.238447 2.825657
2005-03-09 07:48:34 51°16.237 2°53.085 3.2038 2.723497 29.221911 3.432426
2005-03-09 07:49:34 51°16.422 2°52.931 3.2096 2.724654 29.248558 3.870648
2005-03-09 07:50:34 51°16.605 2°52.778 3.1877 2.725286 29.266574 4.679674
2005-03-09 07:51:34 51°16.786 2°52.627 3.2068 2.726022 29.292353 4.983059
2005-03-09 07:52:34 51°16.965 2°52.473 3.1853 2.731178 29.350092 4.747093
2005-03-09 07:53:34 51°17.146 2°52.323 3.2061 2.733071 29.372502 4.88193
2005-03-09 07:54:34 51°17.338 2°52.278 3.2228 2.729073 29.296726 5.556118
2005-03-09 07:55:34 51°17.536 2°52.293 3.2191 2.723602 29.233691 5.556118
2005-03-09 07:56:34 51°17.729 2°52.327 3.2256 2.720656 29.197262 5.4887
2005-03-09 07:57:34 51°17.921 2°52.38 3.23 2.719499 29.178734 5.45499
2005-03-09 07:58:33 51°18.106 2°52.461 3.2339 2.719183 29.179861 4.275161
2005-03-09 07:59:34 51°18.26 2°52.658 3.2437 2.719709 29.169086 4.612255
2005-03-09 08:00:34 51°18.356 2°52.933 3.2357 2.717079 29.13884 4.409999
2005-03-09 08:01:34 51°18.451 2°53.212 3.2359 2.716237 29.138596 4.544836
2005-03-09 08:02:34 51°18.55 2°53.491 3.2265 2.712134 29.094987 4.780802
2005-03-09 08:03:34 51°18.645 2°53.764 3.2287 2.710451 29.076722 5.016768
2005-03-09 08:04:34 51°18.738 2°54.036 3.2261 2.706032 29.023745 4.207742
2005-03-09 08:05:34 51°18.839 2°54.301 3.2241 2.71266 29.10362 4.612255
2005-03-09 08:06:34 51°18.937 2°54.56 3.2268 2.714133 29.116978 4.376289
2005-03-09 08:07:34 51°19.041 2°54.807 3.2258 2.716658 29.152459 3.668392
2005-03-09 08:08:34 51°19.143 2°55.059 3.2372 2.703297 28.985023 2.454853
2005-03-09 08:09:34 51°19.245 2°55.316 3.2432 2.724759 29.240879 2.589691
2005-03-09 08:10:34 51°19.348 2°55.57 3.2364 2.722024 29.201273 2.421144
2005-03-09 08:11:34 51°19.454 2°55.828 3.2328 2.71771 29.159226 3.129042
2005-03-09 08:12:34 51°19.561 2°56.085 3.2451 2.716237 29.138596 3.668392
2005-03-09 08:13:34 51°19.668 2°56.346 3.2357 2.723391 29.216618 4.140324
2005-03-09 08:14:34 51°19.776 2°56.612 3.2391 2.722234 29.206188 4.039195
2005-03-09 08:15:34 51°19.883 2°56.871 3.2411 2.72034 29.182202 3.80323
2005-03-09 08:16:34 51°19.989 2°57.132 3.2275 2.712134 29.091759 2.994204
2005-03-09 08:17:34 51°20.096 2°57.396 3.2246 2.710872 29.080079 2.65711
2005-03-09 08:18:34 51°20.201 2°57.656 3.2178 2.709504 29.069573 2.960494
2005-03-09 08:19:34 51°20.307 2°57.921 3.2196 2.711608 29.100881 3.027913
2005-03-09 08:20:34 51°20.418 2°58.19 3.2162 2.711293 29.093924 2.893076
2005-03-09 08:21:34 51°20.528 2°58.461 3.2128 2.70477 29.017694 2.994204
2005-03-09 08:22:34 51°20.64 2°58.728 3.2139 2.704454 29.020408 3.499845
2005-03-09 08:23:34 51°20.747 2°58.999 3.2079 2.704875 29.027795 4.039195
2005-03-09 08:24:34 51°20.859 2°59.266 3.2122 2.706664 29.048922 3.702101
2005-03-09 08:25:34 51°20.969 2°59.534 3.2107 2.710451 29.092861 3.76952
2005-03-09 08:26:34 51°21.079 2°59.8 3.2096 2.713607 29.133389 3.870648
2005-03-09 08:27:34 51°21.189 3°0.074 3.2174 2.718868 29.189896 3.80323
2005-03-09 08:28:34 51°21.299 3°0.345 3.2228 2.720341 29.202443 3.870648
2005-03-09 08:29:34 51°21.405 3°0.623 3.2305 2.725601 29.262997 3.600973
2005-03-09 08:30:34 51°21.499 3°0.915 3.2452 2.726758 29.270181 3.499845
2005-03-09 08:31:34 51°21.586 3°1.21 3.2437 2.73244 29.325136 3.499845
2005-03-09 08:32:34 51°21.678 3°1.506 3.2609 2.73991 29.400386 3.432426
2005-03-09 08:33:34 51°21.784 3°1.788 3.2695 2.748642 29.496241 3.263879
2005-03-09 08:34:34 51°21.907 3°2.043 3.2874 2.755797 29.570165 3.027913
2005-03-09 08:35:34 51°22.062 3°2.246 3.3268 2.761479 29.618458 3.095332
2005-03-09 08:36:34 51°22.229 3°2.418 3.3734 2.775367 29.734874 3.061623
2005-03-09 08:37:34 51°22.396 3°2.589 3.3776 2.782943 29.801259 2.65711
2005-03-09 08:38:34 51°22.571 3°2.73 3.3688 2.781996 29.790086 2.218888
2005-03-09 08:39:34 51°22.763 3°2.672 3.3739 2.782943 29.794679 1.881794
2005-03-09 08:40:34 51°22.961 3°2.605 3.3469 2.779576 29.777154 1.915503
2005-03-09 08:41:34 51°23.159 3°2.526 3.3389 2.781681 29.817644 1.881794
2005-03-09 08:42:34 51°23.356 3°2.439 3.3796 2.787257 29.878564 2.016631
2005-03-09 08:43:34 51°23.553 3°2.355 3.4283 2.805671 30.05382 1.881794
2005-03-09 08:44:34 51°23.746 3°2.279 3.4882 2.826822 30.253578 1.780665
2005-03-09 08:45:34 51°23.948 3°2.263 3.5242 2.846501 30.438091 1.645828
2005-03-09 08:46:34 51°24.141 3°2.337 3.5266 2.853867 30.498134 1.612118
2005-03-09 08:47:34 51°24.308 3°2.502 3.5652 2.859023 30.55388 1.612118
2005-03-09 08:48:34 51°24.444 3°2.754 3.5734 2.869021 30.639768 1.51099
2005-03-09 08:49:34 51°24.574 3°3.02 3.5906 2.870494 30.649556 1.645828
2005-03-09 08:50:34 51°24.694 3°3.302 3.6307 2.876282 30.700055 2.050341
2005-03-09 08:51:34 51°24.746 3°3.622 3.6697 2.890279 30.810867 2.286306
2005-03-09 08:52:34 51°24.76 3°3.96 3.6562 2.895647 30.864718 2.353725
2005-03-09 08:53:33 51°24.808 3°4.288 3.6384 2.889122 30.809898 2.252597
2005-03-09 08:54:34 51°24.909 3°4.588 3.6328 2.884912 30.768793 2.286306
2005-03-09 08:55:34 51°25.026 3°4.872 3.6514 2.88628 30.781521 2.320016
2005-03-09 08:56:34 51°25.143 3°5.143 3.6858 2.894068 30.847839 2.589691
2005-03-09 08:57:34 51°25.259 3°5.411 3.7278 2.904171 30.936233 3.331298
2005-03-09 08:58:34 51°25.373 3°5.675 3.7413 2.913643 31.012015 3.331298
2005-03-09 08:59:34 51°25.489 3°5.942 3.7428 2.915643 31.026192 2.522272
2005-03-09 09:00:34 51°25.607 3°6.21 3.7395 2.914275 31.015201 2.320016
2005-03-09 09:01:34 51°25.701 3°6.503 3.7307 2.912907 30.996591 2.488563
2005-03-09 09:02:34 51°25.8 3°6.796 3.729 2.911012 30.987028 2.589691
2005-03-09 09:03:34 51°25.9 3°7.085 3.725 2.90996 30.9772 2.724529
2005-03-09 09:04:34 51°25.994 3°7.374 3.7321 2.909854 30.971735 2.791947
2005-03-09 09:05:34 51°26.082 3°7.669 3.7341 2.909854 30.969198 2.859366
2005-03-09 09:06:34 51°26.174 3°7.97 3.7268 2.909539 30.96718 2.926785
2005-03-09 09:07:34 51°26.26 3°8.249 3.7243 2.908065 30.950717 2.825657
2005-03-09 09:08:34 51°26.302 3°8.373 3.714 2.905434 30.929947 2.893076
2005-03-09 09:09:34 51°26.313 3°8.401 3.707 2.903855 30.918155 2.791947
2005-03-09 09:10:34 51°26.301 3°8.421 3.707 2.902803 30.908322 2.690819
2005-03-09 09:11:34 51°26.282 3°8.439 3.7193 2.902592 30.903316 2.522272
2005-03-09 09:12:34 51°26.277 3°8.463 3.7158 2.903961 30.90504 2.454853
2005-03-09 09:13:34 51°26.305 3°8.507 3.7128 2.902698 30.902864 2.522272
2005-03-09 09:14:34 51°26.335 3°8.577 3.7055 2.901751 30.895111 2.555982
2005-03-09 09:15:34 51°26.355 3°8.67 3.7011 2.900593 30.886572 2.421144
2005-03-09 09:16:34 51°26.352 3°8.769 3.6959 2.89933 30.876794 2.151469
2005-03-09 09:17:34 51°26.34 3°8.864 3.6934 2.898172 30.866563 2.016631
2005-03-09 09:18:34 51°26.336 3°8.933 3.6848 2.89712 30.856724 2.117759
2005-03-09 09:19:34 51°26.339 3°8.987 3.6785 2.895646 30.846996 2.555982
2005-03-09 09:20:34 51°26.364 3°9.041 3.6793 2.894384 30.83215 2.6234
2005-03-09 09:21:34 51°26.397 3°9.095 3.682 2.893857 30.825965 2.65711
2005-03-09 09:22:34 51°26.438 3°9.147 3.682 2.893331 30.81978 2.522272
2005-03-09 09:23:34 51°26.481 3°9.198 3.6755 2.892384 30.809489 2.353725
2005-03-09 09:24:34 51°26.523 3°9.251 3.6714 2.891121 30.803068 2.387435
2005-03-09 09:25:34 51°26.563 3°9.306 3.6743 2.8907 30.796434 2.252597
2005-03-09 09:26:34 51°26.6 3°9.366 3.6708 2.889858 30.790748 2.320016
2005-03-09 09:27:34 51°26.634 3°9.425 3.6746 2.889227 30.780798 2.252597
2005-03-09 09:28:34 51°26.671 3°9.483 3.6701 2.888911 30.777087 2.421144
2005-03-09 09:29:34 51°26.705 3°9.542 3.6733 2.888279 30.771348 2.555982
2005-03-09 09:30:34 51°26.739 3°9.604 3.676 2.888385 30.77006 2.6234
2005-03-09 09:31:34 51°26.775 3°9.666 3.6813 2.888069 30.764666 2.791947
2005-03-09 09:32:34 51°26.81 3°9.732 3.6758 2.8887 30.771246 2.724529
2005-03-09 09:33:34 51°26.845 3°9.798 3.6758 2.887122 30.756057 2.724529
2005-03-09 09:34:34 51°26.88 3°9.865 3.6813 2.888069 30.762983 2.893076
2005-03-09 09:35:34 51°26.915 3°9.926 3.6791 2.888595 30.766644 2.791947
2005-03-09 09:36:34 51°26.946 3°9.981 3.6858 2.889121 30.768621 2.65711
2005-03-09 09:37:34 51°26.975 3°10.036 3.6917 2.888595 30.765803 2.960494
2005-03-09 09:38:34 51°27.004 3°10.09 3.6858 2.889542 30.771886 2.859366
2005-03-09 09:39:34 51°27.04 3°10.144 3.6883 2.888595 30.764961 3.129042
2005-03-09 09:40:34 51°27.075 3°10.201 3.6845 2.888911 30.766989 2.791947
2005-03-09 09:41:34 51°27.109 3°10.255 3.6847 2.888806 30.766594 2.724529
2005-03-09 09:42:34 51°27.142 3°10.312 3.6911 2.889332 30.770253 2.555982
2005-03-09 09:43:34 51°27.176 3°10.372 3.6915 2.889226 30.766493 2.6234
2005-03-09 09:44:34 51°27.211 3°10.431 3.6901 2.8887 30.757788 2.522272
2005-03-09 09:45:34 51°27.247 3°10.491 3.6887 2.888279 30.758728 2.387435
2005-03-09 09:46:34 51°27.281 3°10.548 3.6869 2.886806 30.742256 2.387435
2005-03-09 09:47:34 51°27.312 3°10.608 3.6803 2.885859 30.732808 2.387435
2005-03-09 09:48:34 51°27.342 3°10.671 3.6874 2.885438 30.726181 2.454853
2005-03-09 09:49:34 51°27.372 3°10.729 3.6892 2.885438 30.724501 2.6234
2005-03-09 09:50:34 51°27.402 3°10.793 3.6843 2.885332 30.719905 2.589691
2005-03-09 09:51:34 51°27.418 3°10.884 3.6864 2.885648 30.726134 2.252597
2005-03-09 09:52:34 51°27.416 3°11.001 3.6913 2.886069 30.73024 2.117759
2005-03-09 09:53:34 51°27.383 3°11.122 3.6935 2.886806 30.736374 2.185178
2005-03-09 09:54:34 51°27.326 3°11.21 3.6842 2.886806 30.735534 2.690819
2005-03-09 09:55:34 51°27.271 3°11.269 3.6927 2.884806 30.718762 3.129042
2005-03-09 09:56:34 51°27.22 3°11.318 3.6943 2.884385 30.712977 3.162751
2005-03-09 09:57:34 51°27.158 3°11.333 3.6726 2.883964 30.700477 2.893076
2005-03-09 09:58:34 51°27.11 3°11.298 3.6799 2.880807 30.674298 3.297589
2005-03-09 09:59:34 51°27.075 3°11.244 3.6774 2.879965 30.664408 2.994204
2005-03-09 10:00:34 51°27.042 3°11.181 3.6692 2.879123 30.661225 2.65711
2005-03-09 10:01:34 51°27.003 3°11.115 3.6724 2.876492 30.633666 2.758238
2005-03-09 10:02:34 51°26.958 3°11.05 3.67 2.877124 30.634382 2.724529
2005-03-09 10:03:35 51°26.917 3°10.977 3.6694 2.879334 30.666214 2.724529
2005-03-09 10:04:34 51°26.884 3°10.904 3.6723 2.878492 30.654644 2.6234
2005-03-09 10:05:34 51°26.851 3°10.831 3.6783 2.881333 30.684674 2.65711
2005-03-09 10:06:34 51°26.822 3°10.766 3.6851 2.882807 30.699468 2.65711
2005-03-09 10:07:34 51°26.792 3°10.71 3.6967 2.884911 30.720839 2.6234
2005-03-09 10:08:34 51°26.765 3°10.659 3.6923 2.886595 30.735581 2.65711
2005-03-09 10:09:34 51°26.744 3°10.609 3.6971 2.887858 30.743695 2.6234
2005-03-09 10:10:34 51°26.725 3°10.558 3.6971 2.890594 30.769952 2.589691
2005-03-09 10:11:34 51°26.706 3°10.514 3.704 2.889752 30.755861 2.758238
2005-03-09 10:12:35 51°26.686 3°10.469 3.7125 2.892805 30.792547 2.825657
2005-03-09 10:13:34 51°26.669 3°10.42 3.7206 2.894699 30.803858 2.994204
2005-03-09 10:14:34 51°26.653 3°10.368 3.7207 2.894909 30.805488 2.893076
2005-03-09 10:15:34 51°26.639 3°10.309 3.7199 2.897014 30.825154 2.994204
2005-03-09 10:16:34 51°26.626 3°10.249 3.7274 2.89754 30.828808 3.027913
2005-03-09 10:17:34 51°26.614 3°10.194 3.7476 2.899224 30.844368 3.061623
2005-03-09 10:18:34 51°26.603 3°10.128 3.7346 2.900382 30.85796 2.994204
2005-03-09 10:19:34 51°26.591 3°10.062 3.7336 2.901329 30.864026 3.095332
2005-03-09 10:20:34 51°26.58 3°9.99 3.7447 2.903118 30.880817 3.061623
2005-03-09 10:21:34 51°26.569 3°9.92 3.7526 2.904697 30.894291 2.960494
2005-03-09 10:22:33 51°26.559 3°9.847 3.7559 2.90596 30.900684 2.893076
2005-03-09 10:23:34 51°26.55 3°9.773 3.7644 2.908065 30.922857 2.960494
2005-03-09 10:24:34 51°26.538 3°9.702 3.7656 2.909328 30.932617 3.027913
2005-03-09 10:25:34 51°26.528 3°9.633 3.772 2.911433 30.948034 2.926785
2005-03-09 10:26:34 51°26.517 3°9.568 3.783 2.913117 30.962727 2.724529
2005-03-09 10:27:34 51°26.507 3°9.5 3.7775 2.91459 30.973259 2.690819
2005-03-09 10:28:34 51°26.498 3°9.43 3.7857 2.915222 30.982355 2.893076
2005-03-09 10:29:34 51°26.489 3°9.357 3.7944 2.916379 30.990024 2.791947
2005-03-09 10:30:35 51°26.479 3°9.291 3.7981 2.917116 30.99782 2.825657
2005-03-09 10:31:34 51°26.472 3°9.227 3.8083 2.917853 31.003927 2.724529
2005-03-09 10:32:34 51°26.464 3°9.16 3.8024 2.918484 31.005421 2.555982
2005-03-09 10:33:34 51°26.452 3°9.097 3.8033 2.918695 31.004511 2.589691
2005-03-09 10:34:34 51°26.445 3°9.036 3.8079 2.918695 31.001978 2.353725
2005-03-09 10:35:34 51°26.441 3°9.007 3.8033 2.918695 31.004511 2.252597
2005-03-09 10:36:34 51°26.432 3°9.014 3.8032 2.918589 31.002432 2.218888
2005-03-09 10:37:34 51°26.419 3°9.042 3.8077 2.918589 31.002432 2.387435
2005-03-09 10:38:34 51°26.405 3°9.082 3.8074 2.91901 31.004835 2.353725
2005-03-09 10:39:34 51°26.39 3°9.131 3.8109 2.919326 31.006004 2.454853
2005-03-09 10:40:34 51°26.376 3°9.183 3.8131 2.919431 31.006393 2.454853
2005-03-09 10:41:34 51°26.365 3°9.234 3.815 2.919537 31.005094 2.454853
2005-03-09 10:42:34 51°26.353 3°9.288 3.816 2.919221 31.003926 2.488563
2005-03-09 10:43:34 51°26.342 3°9.342 3.81 2.919221 31.003926 2.522272
2005-03-09 10:44:34 51°26.322 3°9.386 3.8171 2.919116 31.001848 2.488563
2005-03-09 10:45:34 51°26.288 3°9.429 3.8107 2.919221 30.999705 2.488563
2005-03-09 10:46:34 51°26.255 3°9.492 3.8033 2.917958 30.99334 2.555982
2005-03-09 10:47:33 51°26.232 3°9.568 3.8098 2.917432 30.992235 2.690819
2005-03-09 10:48:34 51°26.219 3°9.655 3.8 2.917326 30.989312 2.6234
2005-03-09 10:49:34 51°26.215 3°9.736 3.8007 2.916906 30.988596 2.690819
2005-03-09 10:50:34 51°26.217 3°9.808 3.8035 2.917011 30.987298 2.488563
2005-03-09 10:51:34 51°26.216 3°9.876 3.8044 2.916695 30.981908 2.589691
2005-03-09 10:52:34 51°26.218 3°9.941 3.8128 2.916905 30.986908 2.555982
2005-03-09 10:53:34 51°26.215 3°10.002 3.8244 2.917958 30.984058 2.353725
2005-03-09 10:54:34 51°26.206 3°10.062 3.8097 2.918589 30.986397 2.286306
2005-03-09 10:55:34 51°26.197 3°10.12 3.8137 2.917432 30.98717 2.6234
2005-03-09 10:56:34 51°26.203 3°10.229 3.831 2.917432 30.983795 2.724529
2005-03-09 10:57:34 51°26.127 3°10.416 3.8215 2.918168 30.986525 2.926785
2005-03-09 10:58:34 51°25.963 3°10.506 3.8009 2.916905 30.981844 2.994204
2005-03-09 10:59:35 51°25.777 3°10.67 3.7861 2.913432 30.955461 3.061623
2005-03-09 11:00:34 51°25.653 3°10.963 3.7879 2.909538 30.926652 2.65711
2005-03-09 11:01:34 51°25.522 3°11.262 3.7614 2.907117 30.885625 2.859366
2005-03-09 11:02:34 51°25.401 3°11.574 3.7488 2.902487 30.85572 3.027913
2005-03-09 11:03:34 51°25.3 3°11.906 3.726 2.899014 30.826749 2.6234
2005-03-09 11:04:34 51°25.209 3°12.255 3.7152 2.894909 30.800441 2.421144
2005-03-09 11:05:34 51°25.138 3°12.564 3.6945 2.89312 30.778596 2.690819
2005-03-09 11:06:34 51°25.097 3°12.789 3.6765 2.890279 30.773812 2.859366
2005-03-09 11:07:35 51°25.087 3°12.965 3.6798 2.888595 30.770009 2.994204
2005-03-09 11:08:34 51°25.086 3°13.093 3.6707 2.888385 30.768377 2.893076
2005-03-09 11:09:34 51°25.086 3°13.202 3.6756 2.887858 30.763875 2.825657
2005-03-09 11:10:34 51°25.089 3°13.316 3.6681 2.887858 30.763875 3.095332
2005-03-09 11:11:34 51°25.088 3°13.446 3.6657 2.880386 30.681937 3.129042
2005-03-09 11:12:34 51°25.082 3°13.577 3.6704 2.887017 30.761551 2.825657
2005-03-09 11:13:34 51°25.082 3°13.704 3.6707 2.887016 30.759868 2.893076
2005-03-09 11:14:34 51°25.079 3°13.826 3.6653 2.885964 30.748337 2.893076
2005-03-09 11:15:34 51°25.076 3°13.946 3.6626 2.886701 30.760363 2.791947
2005-03-09 11:16:34 51°25.074 3°14.052 3.668 2.885754 30.75091 3.027913
2005-03-09 11:17:34 51°25.074 3°14.153 3.665 2.886175 30.753335 2.926785
2005-03-09 11:18:34 51°25.075 3°14.251 3.6646 2.886911 30.759472 2.960494
2005-03-09 11:19:34 51°25.071 3°14.346 3.6664 2.886701 30.761205 2.926785
2005-03-09 11:20:34 51°25.073 3°14.442 3.6576 2.886911 30.767047 2.859366
2005-03-09 11:21:34 51°25.077 3°14.534 3.6644 2.886596 30.767544 3.061623
2005-03-09 11:22:34 51°25.08 3°14.625 3.6664 2.88628 30.759622 2.758238
2005-03-09 11:23:34 51°25.086 3°14.716 3.6635 2.886596 30.768386 2.859366
2005-03-09 11:24:34 51°25.092 3°14.806 3.6588 2.88649 30.762938 2.724529
2005-03-09 11:25:34 51°25.099 3°14.895 3.6583 2.886911 30.768731 2.893076
2005-03-09 11:26:34 51°25.107 3°14.985 3.6661 2.885859 30.754672 2.65711
2005-03-09 11:27:34 51°25.115 3°15.075 3.6686 2.886701 30.760363 2.589691
2005-03-09 11:28:34 51°25.124 3°15.165 3.6652 2.887017 30.761551 2.522272
2005-03-09 11:29:34 51°25.134 3°15.251 3.6637 2.886175 30.752494 2.454853
2005-03-09 11:30:34 51°25.145 3°15.341 3.664 2.886385 30.757493 2.522272
2005-03-09 11:31:34 51°25.154 3°15.43 3.6716 2.88628 30.753731 2.488563
2005-03-09 11:32:34 51°25.164 3°15.515 3.668 2.885754 30.752593 2.488563
2005-03-09 11:33:34 51°25.175 3°15.6 3.6591 2.885543 30.750118 2.6234
2005-03-09 11:34:34 51°25.185 3°15.684 3.6653 2.885333 30.745961 2.555982
2005-03-09 11:35:34 51°25.195 3°15.768 3.6651 2.885543 30.746753 2.522272
2005-03-09 11:36:34 51°25.206 3°15.853 3.6695 2.885227 30.7422 2.488563
2005-03-09 11:37:34 51°25.216 3°15.936 3.6676 2.884806 30.738933 2.488563
2005-03-09 11:38:34 51°25.225 3°16.021 3.6717 2.884912 30.733443 2.488563
2005-03-09 11:39:35 51°25.235 3°16.108 3.6765 2.884806 30.733888 2.421144
2005-03-09 11:40:34 51°25.246 3°16.194 3.6762 2.884701 30.729288 2.454853
2005-03-09 11:41:34 51°25.259 3°16.28 3.6703 2.884806 30.729685 2.488563
2005-03-09 11:42:34 51°25.272 3°16.366 3.6635 2.88407 30.726069 2.724529
2005-03-09 11:43:34 51°25.285 3°16.45 3.6643 2.883649 30.725323 2.690819
2005-03-09 11:44:34 51°25.298 3°16.534 3.6628 2.883438 30.72369 2.65711
2005-03-09 11:45:34 51°25.309 3°16.619 3.663 2.883333 30.716569 2.589691
2005-03-09 11:46:35 51°25.318 3°16.706 3.6708 2.883333 30.71909 2.6234
2005-03-09 11:47:34 51°25.318 3°16.808 3.6732 2.882807 30.714586 2.724529
2005-03-09 11:48:34 51°25.286 3°16.905 3.6692 2.882702 30.712508 2.6234
2005-03-09 11:49:34 51°25.249 3°16.945 3.6693 2.882596 30.712952 2.758238
2005-03-09 11:50:34 51°25.223 3°16.968 3.6822 2.883333 30.71825 2.421144
2005-03-09 11:51:34 51°25.219 3°16.943 3.6735 2.886069 30.737802 2.488563
2005-03-09 11:52:34 51°25.216 3°16.948 3.6717 2.885964 30.748337 2.522272
2005-03-09 11:53:34 51°25.212 3°16.956 3.6827 2.886806 30.752346 2.353725
2005-03-09 11:54:34 51°25.212 3°16.895 3.677 2.887332 30.754325 2.185178
2005-03-09 11:55:34 51°25.226 3°16.812 3.6719 2.887964 30.761746 2.286306
2005-03-09 11:56:34 51°25.241 3°16.737 3.6786 2.887964 30.761746 2.555982
2005-03-09 11:57:35 51°25.261 3°16.661 3.6696 2.887964 30.765953 2.791947
2005-03-09 11:58:34 51°25.271 3°16.587 3.6799 2.887543 30.755958 2.758238
2005-03-09 11:59:34 51°25.263 3°16.515 3.6806 2.887437 30.754721 2.758238
2005-03-09 12:00:34 51°25.251 3°16.44 3.6784 2.887858 30.756304 2.6234
2005-03-09 12:01:35 51°25.239 3°16.367 3.6885 2.888911 30.765307 2.522272
2005-03-09 12:02:34 51°25.231 3°16.295 3.6898 2.889753 30.772676 2.488563
2005-03-09 12:03:34 51°25.224 3°16.225 3.6965 2.891226 30.782416 2.421144
2005-03-09 12:04:34 51°25.218 3°16.155 3.6984 2.892173 30.791019 2.387435
2005-03-09 12:05:34 51°25.214 3°16.086 3.6999 2.892805 30.797596 2.522272
2005-03-09 12:06:34 51°25.211 3°16.018 3.7031 2.893226 30.805067 2.6234
2005-03-09 12:07:34 51°25.206 3°15.945 3.709 2.894278 30.810695 2.454853
2005-03-09 12:08:34 51°25.203 3°15.871 3.7191 2.894383 30.80604 2.387435
2005-03-09 12:09:34 51°25.197 3°15.794 3.7125 2.894699 30.81059 2.454853
2005-03-09 12:10:34 51°25.192 3°15.715 3.7122 2.89533 30.816323 2.218888
2005-03-09 12:11:35 51°25.187 3°15.634 3.7173 2.895436 30.819242 2.353725
2005-03-09 12:12:34 51°25.182 3°15.559 3.7133 2.896172 30.818635 2.353725
2005-03-09 12:13:34 51°25.177 3°15.486 3.7228 2.896278 30.819029 2.387435
2005-03-09 12:14:34 51°25.171 3°15.416 3.73 2.896804 30.823524 2.320016
2005-03-09 12:15:35 51°25.165 3°15.345 3.7246 2.897014 30.820105 2.320016
2005-03-09 12:16:34 51°25.16 3°15.279 3.7325 2.897751 30.822863 2.252597
2005-03-09 12:17:34 51°25.156 3°15.214 3.74 2.898277 30.827357 2.252597
2005-03-09 12:18:34 51°25.155 3°15.149 3.7391 2.898909 30.82972 2.151469
2005-03-09 12:19:34 51°25.155 3°15.081 3.7431 2.899119 30.833032 2.353725
2005-03-09 12:20:34 51°25.154 3°15.011 3.7512 2.89933 30.83971 2.555982
2005-03-09 12:21:34 51°25.153 3°14.938 3.7389 2.899961 30.839547 2.522272
2005-03-09 12:22:34 51°25.15 3°14.868 3.7484 2.900066 30.844149 2.6234
2005-03-09 12:23:34 51°25.148 3°14.795 3.7564 2.901119 30.848083 2.454853
2005-03-09 12:24:34 51°25.146 3°14.723 3.7626 2.902171 30.852857 2.320016
2005-03-09 12:25:34 51°25.146 3°14.647 3.7745 2.902803 30.861108 2.454853
2005-03-09 12:26:34 51°25.146 3°14.568 3.7789 2.904065 30.867506 2.421144
2005-03-09 12:27:34 51°25.144 3°14.492 3.7752 2.905013 30.872725 2.6234
2005-03-09 12:28:34 51°25.143 3°14.418 3.7745 2.90596 30.879625 2.454853
2005-03-09 12:29:34 51°25.142 3°14.34 3.8051 2.906907 30.885682 2.387435
2005-03-09 12:30:34 51°25.14 3°14.261 3.7949 2.909538 30.900536 2.185178
2005-03-09 12:31:34 51°25.14 3°14.182 3.7928 2.909854 30.908447 2.387435
2005-03-09 12:32:35 51°25.147 3°14.1 3.7972 2.910064 30.912599 2.488563
2005-03-09 12:33:34 51°25.167 3°14.022 3.7908 2.910906 30.918259 2.454853
2005-03-09 12:34:34 51°25.192 3°13.947 3.8032 2.910801 30.922922 2.791947
2005-03-09 12:35:34 51°25.237 3°13.891 3.8127 2.911538 30.922292 2.488563
2005-03-09 12:36:34 51°25.293 3°13.882 3.816 2.913958 30.941399 2.589691
2005-03-09 12:37:34 51°25.332 3°13.909 3.8269 2.913643 30.936856 2.522272
2005-03-09 12:38:34 51°25.356 3°13.942 3.8216 2.91459 30.93448 2.185178
2005-03-09 12:39:34 51°25.371 3°13.978 3.8211 2.914379 30.938751 2.488563
2005-03-09 12:40:34 51°25.381 3°14.013 3.8152 2.913643 30.928435 2.488563
2005-03-09 12:41:34 51°25.386 3°14.05 3.8316 2.913116 30.926478 2.421144
2005-03-09 12:42:34 51°25.387 3°14.084 3.8267 2.913748 30.921251 1.915503
2005-03-09 12:43:34 51°25.398 3°14.13 3.8408 2.91259 30.912738 1.679537
2005-03-09 12:44:35 51°25.424 3°14.184 3.8237 2.913221 30.917611 1.848084
2005-03-09 12:45:35 51°25.452 3°14.23 3.8125 2.912064 30.916671 2.117759
2005-03-09 12:46:34 51°25.476 3°14.264 3.831 2.911853 30.915888 2.218888
2005-03-09 12:47:34 51°25.493 3°14.297 3.8232 2.913116 30.918903 2.117759
2005-03-09 12:48:34 51°25.513 3°14.323 3.832 2.9128 30.91268 2.185178
2005-03-09 12:49:35 51°25.531 3°14.328 3.8394 2.913748 30.913679 2.117759
2005-03-09 12:50:34 51°25.535 3°14.322 3.8381 2.913537 30.91542 2.353725
2005-03-09 12:51:34 51°25.519 3°14.321 3.8302 2.912485 30.909823 2.522272
2005-03-09 12:52:34 51°25.501 3°14.335 3.8311 2.913432 30.912505 2.454853
2005-03-09 12:53:34 51°25.489 3°14.35 3.8435 2.912379 30.90018 2.151469
2005-03-09 12:54:34 51°25.484 3°14.367 3.8301 2.9148 30.920957 2.117759
2005-03-09 12:55:34 51°25.481 3°14.384 3.8209 2.913116 30.915537 2.320016
2005-03-09 12:56:34 51°25.479 3°14.405 3.8108 2.91259 30.916104 2.421144
2005-03-09 12:57:34 51°25.457 3°14.407 3.8071 2.909748 30.889541 2.589691
2005-03-09 12:58:34 51°25.334 3°14.469 3.8304 2.909748 30.889541 2.555982
2005-03-09 12:59:34 51°25.128 3°14.567 3.8304 2.914484 30.92399 2.421144
2005-03-09 13:00:34 51°24.914 3°14.673 3.8184 2.913116 30.925636 2.421144
2005-03-09 13:01:34 51°24.701 3°14.775 3.7769 2.916169 30.958031 2.117759
2005-03-09 13:02:34 51°24.488 3°14.878 3.7119 2.899329 30.825407 2.454853
2005-03-09 13:03:34 51°24.316 3°15.1 3.6336 2.869757 30.547029 1.746956
2005-03-09 13:04:34 51°24.21 3°15.439 3.5974 2.849656 30.355125 1.713247
2005-03-09 13:05:34 51°24.097 3°15.776 3.5883 2.839659 30.265896 2.320016
2005-03-09 13:06:34 51°24 3°16.129 3.5683 2.833872 30.207822 2.151469
2005-03-09 13:07:34 51°23.906 3°16.488 3.5622 2.824401 30.114707 2.08405
2005-03-09 13:08:34 51°23.81 3°16.843 3.5437 2.810931 29.972062 2.286306
2005-03-09 13:09:35 51°23.713 3°17.203 3.5193 2.794727 29.791504 2.421144
2005-03-09 13:10:34 51°23.63 3°17.559 3.4741 2.770736 29.538247 2.893076
2005-03-09 13:11:34 51°23.625 3°17.919 3.469 2.74843 29.304621 3.129042
2005-03-09 13:12:34 51°23.665 3°18.107 3.4824 2.742538 29.241882 2.589691
2005-03-09 13:13:34 51°23.699 3°18.212 3.4819 2.741275 29.217409 2.320016
2005-03-09 13:14:34 51°23.721 3°18.293 3.4862 2.740118 29.199809 2.117759
2005-03-09 13:15:34 51°23.737 3°18.357 3.4912 2.738224 29.176784 2.286306
2005-03-09 13:16:34 51°23.748 3°18.411 3.4728 2.736857 29.169563 2.488563
2005-03-09 13:17:34 51°23.757 3°18.458 3.4637 2.735068 29.159004 2.522272
2005-03-09 13:18:34 51°23.776 3°18.532 3.4763 2.734963 29.154558 2.522272
2005-03-09 13:19:35 51°23.745 3°18.706 3.4813 2.734858 29.147708 2.522272
2005-03-09 13:20:34 51°23.61 3°18.815 3.4772 2.733911 29.133389 2.522272
2005-03-09 13:21:34 51°23.474 3°18.879 3.4716 2.73128 29.115346 2.825657
2005-03-09 13:22:35 51°23.409 3°18.862 3.4787 2.732122 29.119614 2.724529
2005-03-09 13:23:34 51°23.387 3°18.802 3.4783 2.735384 29.147465 2.488563
2005-03-09 13:24:34 51°23.371 3°18.71 3.478 2.737067 29.168822 2.589691
2005-03-09 13:25:34 51°23.351 3°18.612 3.4817 2.739066 29.183449 2.65711
2005-03-09 13:26:34 51°23.333 3°18.515 3.4846 2.740329 29.201475 2.791947
2005-03-09 13:27:34 51°23.323 3°18.426 3.4871 2.741696 29.215918 2.690819
2005-03-09 13:28:34 51°23.317 3°18.342 3.4848 2.742433 29.226972 2.791947
2005-03-09 13:29:34 51°23.313 3°18.259 3.485 2.743064 29.236794 2.791947
2005-03-09 13:30:34 51°23.306 3°18.176 3.4818 2.744011 29.248713 2.825657
2005-03-09 13:31:34 51°23.305 3°18.093 3.4877 2.745168 29.258274 2.690819
2005-03-09 13:32:34 51°23.309 3°18.01 3.4873 2.745905 29.263699 2.589691
2005-03-09 13:33:34 51°23.31 3°17.929 3.4869 2.746641 29.266708 2.589691
2005-03-09 13:34:34 51°23.307 3°17.847 3.4933 2.746957 29.271217 2.555982
2005-03-09 13:35:35 51°23.303 3°17.763 3.4886 2.746957 29.275242 2.555982
2005-03-09 13:36:35 51°23.299 3°17.681 3.4972 2.747693 29.278249 2.522272
2005-03-09 13:37:34 51°23.294 3°17.598 3.499 2.74843 29.284477 2.421144
2005-03-09 13:38:35 51°23.291 3°17.513 3.497 2.748956 29.291455 2.421144
2005-03-09 13:39:34 51°23.287 3°17.43 3.4922 2.749482 29.298434 2.320016
2005-03-09 13:40:34 51°23.284 3°17.347 3.5151 2.750219 29.30466 2.454853
2005-03-09 13:41:35 51°23.281 3°17.264 3.5106 2.750324 29.300256 2.320016
2005-03-09 13:42:34 51°23.278 3°17.181 3.5079 2.749587 29.290809 2.286306
2005-03-09 13:43:34 51°23.272 3°17.099 3.5023 2.747904 29.270255 2.320016
2005-03-09 13:44:35 51°23.262 3°17.013 3.5051 2.74622 29.252921 2.286306
2005-03-09 13:45:34 51°23.252 3°16.931 3.4935 2.745168 29.246207 2.218888
2005-03-09 13:46:34 51°23.24 3°16.848 3.4929 2.744642 29.244055 2.218888
2005-03-09 13:47:35 51°23.229 3°16.765 3.4958 2.745168 29.252641 2.252597
2005-03-09 13:48:34 51°23.221 3°16.683 3.4955 2.746536 29.263059 2.286306
2005-03-09 13:49:34 51°23.218 3°16.597 3.5017 2.747062 29.269232 2.286306
2005-03-09 13:50:35 51°23.216 3°16.511 3.4897 2.747588 29.27621 2.185178
2005-03-09 13:51:34 51°23.214 3°16.427 3.4882 2.747693 29.280665 2.218888
2005-03-09 13:52:34 51°23.211 3°16.342 3.4899 2.747378 29.278571 2.185178
2005-03-09 13:53:34 51°23.207 3°16.263 3.4807 2.747167 29.277712 2.218888
2005-03-09 13:54:34 51°23.202 3°16.184 3.4828 2.746431 29.274704 2.151469
2005-03-09 13:55:35 51°23.197 3°16.107 3.4724 2.745484 29.270836 2.117759
2005-03-09 13:56:35 51°23.186 3°16.025 3.4708 2.744853 29.266645 2.016631
2005-03-09 13:57:35 51°23.169 3°15.94 3.4622 2.744327 29.262079 2.151469
2005-03-09 13:58:34 51°23.157 3°15.856 3.4544 2.743275 29.261805 2.218888
2005-03-09 13:59:34 51°23.152 3°15.772 3.4588 2.74338 29.259818 1.949212
2005-03-09 14:00:34 51°23.15 3°15.691 3.4531 2.743275 29.259388 1.814375
2005-03-09 14:01:34 51°23.151 3°15.615 3.4613 2.74317 29.261375 1.848084
2005-03-09 14:02:34 51°23.153 3°15.569 3.4694 2.74359 29.26229 1.814375
2005-03-09 14:03:35 51°23.153 3°15.547 3.4677 2.74338 29.253376 1.713247
2005-03-09 14:04:34 51°23.152 3°15.54 3.4613 2.742643 29.250363 1.612118
2005-03-09 14:05:34 51°23.142 3°15.499 3.4579 2.742538 29.250738 1.713247
2005-03-09 14:06:34 51°23.127 3°15.417 3.4611 2.741907 29.248155 1.780665
2005-03-09 14:07:34 51°23.118 3°15.33 3.4547 2.741381 29.23795 1.612118
2005-03-09 14:08:34 51°23.101 3°15.243 3.4565 2.740013 29.227519 1.679537
2005-03-09 14:09:35 51°23.075 3°15.161 3.4491 2.738856 29.215535 1.713247
2005-03-09 14:10:34 51°23.052 3°15.094 3.457 2.736962 29.190879 1.612118
2005-03-09 14:11:35 51°23.029 3°15.026 3.453 2.735068 29.164623 1.477281
2005-03-09 14:12:35 51°23.009 3°14.958 3.4419 2.733806 29.150602 1.308734
2005-03-09 14:13:34 51°22.991 3°14.889 3.4528 2.732017 29.135219 1.342443
2005-03-09 14:14:35 51°22.973 3°14.819 3.4495 2.731386 29.127807 1.308734
2005-03-09 14:15:34 51°22.954 3°14.749 3.4396 2.730544 29.123538 1.308734
2005-03-09 14:16:34 51°22.936 3°14.677 3.4406 2.730334 29.123474 1.342443
2005-03-09 14:17:34 51°22.917 3°14.604 3.4348 2.729808 29.122912 1.342443
2005-03-09 14:18:34 51°22.899 3°14.529 3.4377 2.729282 29.116732 1.376153
2005-03-09 14:19:35 51°22.878 3°14.456 3.454 2.729176 29.111486 1.409862
2005-03-09 14:20:34 51°22.858 3°14.386 3.4634 2.728861 29.098961 1.342443
2005-03-09 14:21:34 51°22.837 3°14.317 3.4802 2.72886 29.083744 1.443571
2005-03-09 14:22:34 51°22.82 3°14.249 3.4829 2.72644 29.039365 1.51099
2005-03-09 14:23:34 51°22.806 3°14.18 3.4821 2.723284 29.007143 1.612118
2005-03-09 14:24:35 51°22.792 3°14.11 3.4868 2.72139 28.984937 1.645828
2005-03-09 14:25:34 51°22.777 3°14.042 3.4857 2.719391 28.964687 1.915503
2005-03-09 14:26:35 51°22.761 3°13.97 3.4963 2.717182 28.927639 1.746956
2005-03-09 14:27:34 51°22.747 3°13.901 3.4858 2.715078 28.90139 1.713247
2005-03-09 14:28:34 51°22.73 3°13.831 3.4902 2.712553 28.881336 1.713247
2005-03-09 14:29:34 51°22.714 3°13.761 3.4819 2.709712 28.842492 1.746956
2005-03-09 14:30:34 51°22.698 3°13.694 3.4955 2.706977 28.812031 1.780665
2005-03-09 14:31:34 51°22.681 3°13.623 3.5013 2.703084 28.755359 1.814375
2005-03-09 14:32:35 51°22.662 3°13.538 3.4958 2.700138 28.716923 1.814375
2005-03-09 14:33:35 51°22.645 3°13.447 3.4892 2.697824 28.695356 1.881794
2005-03-09 14:34:35 51°22.629 3°13.36 3.4829 2.696141 28.681173 1.949212
2005-03-09 14:35:34 51°22.631 3°13.27 3.4868 2.694247 28.669256 1.949212
2005-03-09 14:36:34 51°22.667 3°13.216 3.4821 2.693721 28.657576 1.814375
2005-03-09 14:37:34 51°22.699 3°13.219 3.4729 2.692248 28.645849 1.713247
2005-03-09 14:38:34 51°22.718 3°13.241 3.4737 2.691933 28.649248 1.814375
2005-03-09 14:39:34 51°22.729 3°13.266 3.4581 2.691933 28.649248 1.848084
2005-03-09 14:40:35 51°22.737 3°13.292 3.4564 2.691302 28.655263 1.915503
2005-03-09 14:41:34 51°22.742 3°13.315 3.4578 2.690986 28.656299 2.016631
2005-03-09 14:42:34 51°22.744 3°13.338 3.4869 2.690881 28.652699 2.08405
2005-03-09 14:43:34 51°22.745 3°13.36 3.5091 2.692353 28.638414 1.848084
2005-03-09 14:44:35 51°22.748 3°13.382 3.5215 2.69351 28.635421 1.746956
2005-03-09 14:45:34 51°22.748 3°13.404 3.5349 2.694562 28.635135 1.713247
2005-03-09 14:46:34 51°22.749 3°13.425 3.5628 2.695719 28.629791 1.612118
2005-03-09 14:47:34 51°22.748 3°13.445 3.5702 2.696876 28.629955 1.5447
2005-03-09 14:48:34 51°22.746 3°13.464 3.5957 2.698244 28.63022 1.443571
2005-03-09 14:49:35 51°22.748 3°13.485 3.5852 2.699822 28.632943 1.376153
2005-03-09 14:50:34 51°22.757 3°13.512 3.5493 2.69877 28.630866 1.308734
2005-03-09 14:51:35 51°22.778 3°13.538 3.502 2.697508 28.66565 1.679537
2005-03-09 14:52:34 51°22.805 3°13.558 3.4958 2.696561 28.675847 1.780665
2005-03-09 14:53:35 51°22.836 3°13.564 3.49 2.696772 28.684619 1.881794
2005-03-09 14:54:34 51°22.864 3°13.554 3.4971 2.697613 28.692104 1.982922
2005-03-09 14:55:34 51°22.883 3°13.529 3.503 2.698455 28.701167 1.814375
2005-03-09 14:56:34 51°22.892 3°13.488 3.507 2.699928 28.712882 1.848084
2005-03-09 14:57:34 51°22.887 3°13.433 3.4984 2.700559 28.715533 1.814375
2005-03-09 14:58:35 51°22.867 3°13.382 3.5046 2.70119 28.719763 1.881794
2005-03-09 14:59:34 51°22.831 3°13.369 3.5139 2.700033 28.717271 1.814375
2005-03-09 15:00:34 51°22.767 3°13.311 3.5038 2.69877 28.684355 1.780665
2005-03-09 15:01:35 51°22.684 3°13.031 3.4482 2.708237 28.616694 2.960494
2005-03-09 15:02:36 51°22.603 3°12.692 3.4472 2.690986 28.627917 2.016631
2005-03-09 15:03:35 51°22.526 3°12.362 3.485 2.692459 28.679088 2.117759
2005-03-09 15:04:35 51°22.445 3°12.024 3.5256 2.694141 28.627854 1.915503
2005-03-09 15:05:35 51°22.36 3°11.683 3.7905 2.688355 28.561772 1.915503
2005-03-09 15:06:35 51°22.277 3°11.33 4.6299 2.723805 28.524671 1.915503
2005-03-09 15:07:35 51°22.205 3°10.969 3.6767 2.73401 28.557492 1.814375
2005-03-09 15:08:35 51°22.125 3°10.621 3.5964 2.674363 28.2972 1.645828
2005-03-09 15:09:36 51°22.04 3°10.263 3.5512 2.67552 28.382922 2.185178
2005-03-09 15:10:35 51°21.947 3°9.931 3.5275 2.686672 28.53112 2.218888
2005-03-09 15:11:35 51°21.847 3°9.595 3.5658 2.69088 28.594434 2.117759
2005-03-09 15:12:35 51°21.752 3°9.265 3.5398 2.701085 28.706698 2.151469
2005-03-09 15:13:36 51°21.65 3°8.929 3.5309 2.704136 28.733705 2.286306
2005-03-09 15:14:36 51°21.526 3°8.624 3.5379 2.705398 28.746102 2.320016
2005-03-09 15:15:36 51°21.392 3°8.329 3.5589 2.706029 28.751116 2.421144
2005-03-09 15:16:35 51°21.261 3°8.036 3.4738 2.702873 28.722096 2.421144
2005-03-09 15:17:35 51°21.123 3°7.739 3.4535 2.699928 28.724727 2.488563
2005-03-09 15:18:36 51°20.971 3°7.452 3.488 2.697929 28.7187 2.589691
2005-03-09 15:19:35 51°20.82 3°7.181 3.5464 2.704241 28.75942 2.454853
2005-03-09 15:20:35 51°20.67 3°6.914 3.5672 2.72381 28.941654 2.353725
2005-03-09 15:21:35 51°20.514 3°6.654 3.5003 2.735383 29.09384 2.724529
2005-03-09 15:22:35 51°20.346 3°6.411 3.5003 2.733489 29.097228 2.825657
2005-03-09 15:23:36 51°20.181 3°6.153 3.4857 2.730333 29.060237 2.758238
2005-03-09 15:24:35 51°20.022 3°5.903 3.5062 2.727808 29.042621 2.65711
2005-03-09 15:25:35 51°19.86 3°5.647 3.5276 2.725073 29.015345 2.555982
2005-03-09 15:26:35 51°19.712 3°5.367 3.4799 2.721495 28.968636 2.286306
2005-03-09 15:27:36 51°19.572 3°5.066 3.461 2.718971 28.958159 2.353725
2005-03-09 15:28:35 51°19.441 3°4.767 3.5141 2.719602 28.958389 2.488563
2005-03-09 15:29:35 51°19.308 3°4.467 3.5414 2.7236 28.991701 2.690819
2005-03-09 15:30:36 51°19.176 3°4.159 3.4978 2.724862 29.008092 2.6234
2005-03-09 15:31:35 51°19.054 3°3.858 3.5043 2.724968 29.033274 2.522272
2005-03-09 15:32:36 51°18.927 3°3.552 3.4601 2.726861 29.025936 2.320016
2005-03-09 15:33:35 51°18.801 3°3.254 3.4955 2.725073 29.02652 2.218888
2005-03-09 15:34:35 51°18.678 3°2.949 3.4834 2.724547 29.006785 2.185178
2005-03-09 15:35:35 51°18.554 3°2.642 3.4564 2.723389 29.007579 2.252597
2005-03-09 15:36:35 51°18.428 3°2.335 3.4288 2.721706 29.011786 2.252597
2005-03-09 15:37:35 51°18.303 3°2.025 3.4179 2.72097 29.019925 2.286306
2005-03-09 15:38:35 51°18.18 3°1.719 3.4422 2.721601 29.023338 2.252597
2005-03-09 15:39:35 51°18.058 3°1.407 3.4449 2.72602 29.05841 2.218888
2005-03-09 15:40:35 51°17.933 3°1.098 3.4282 2.72602 29.075221 2.353725
2005-03-09 15:41:35 51°17.806 3°0.791 3.444 2.728229 29.09716 2.286306
2005-03-09 15:42:35 51°17.682 3°0.48 3.4172 2.73086 29.134468 1.982922
2005-03-09 15:43:36 51°17.555 3°0.161 3.3798 2.729282 29.144035 2.151469
2005-03-09 15:44:35 51°17.432 2°59.854 3.3461 2.728546 29.145827 2.320016
2005-03-09 15:45:35 51°17.307 2°59.543 3.3293 2.721707 29.112001 2.387435
2005-03-09 15:46:36 51°17.182 2°59.226 3.3263 2.721918 29.103218 2.320016
2005-03-09 15:47:35 51°17.075 2°58.905 3.3256 2.721392 29.10748 2.387435
2005-03-09 15:48:35 51°16.966 2°58.575 3.3325 2.721497 29.132874 2.320016
2005-03-09 15:49:36 51°16.854 2°58.247 3.3848 2.726442 29.175823 2.218888
2005-03-09 15:50:35 51°16.747 2°57.927 3.325 2.726547 29.158522 2.117759
2005-03-09 15:51:35 51°16.64 2°57.596 3.2818 2.715395 29.068208 2.218888
2005-03-09 15:52:35 51°16.534 2°57.273 3.2604 2.708452 29.019316 2.387435
2005-03-09 15:53:35 51°16.422 2°56.952 3.2603 2.705296 29.001377 2.589691
2005-03-09 15:54:35 51°16.294 2°56.65 3.3074 2.712344 29.049939 2.555982
2005-03-09 15:55:36 51°16.161 2°56.343 3.3213 2.717815 29.096725 2.252597
2005-03-09 15:56:35 51°16.031 2°56.046 3.2918 2.719603 29.111362 1.949212
2005-03-09 15:57:35 51°15.9 2°55.746 3.2786 2.716026 29.097384 2.117759
2005-03-09 15:58:35 51°15.747 2°55.478 3.2848 2.712029 29.047022 2.117759
2005-03-09 15:59:36 51°15.549 2°55.292 3.3234 2.697299 28.855861 1.982922
2005-03-09 16:00:35 51°15.348 2°55.134 3.2593 2.690882 28.783501 1.848084
2005-03-09 16:01:35 51°15.14 2°54.991 3.2686 2.678889 28.676492 2.016631
2005-03-09 16:02:35 51°14.92 2°54.88 3.3314 2.669421 28.557883 1.848084
2005-03-09 16:03:34 51°14.7 2°54.823 3.3359 2.668369 28.498143 1.915503
2005-03-09 16:04:35 51°14.496 2°54.912 3.3418 2.667948 28.50108 1.881794
2005-03-09 16:05:35 51°14.347 2°55.122 3.4969 2.663529 28.40909 1.780665
2005-03-09 16:06:36 51°14.21 2°55.335 3.5359 2.560026 27.092417 2.421144
2005-03-09 16:07:34 51°14.088 2°55.44 3.5512 2.446452 25.739817 3.432426
2005-03-09 16:08:35 51°13.971 2°55.526 3.7682 2.408391 25.282931 -0.477864
2005-03-09 16:09:35 51°13.852 2°55.617 4.0578 2.410178 25.300033 -0.882377
2005-03-09 16:10:35 51°13.746 2°55.741 4.1507 2.411124 25.308842 -0.882377
2005-03-09 16:11:35 51°13.676 2°55.876 4.2724 2.411019 25.302774 -0.882377
2005-03-09 16:12:35 51°13.634 2°55.983 4.3218 2.410809 25.298967 -0.848668
2005-03-09 16:13:37 51°13.611 2°56.051 4.5204 2.411019 25.295837 -0.848668
2005-03-09 16:14:36 51°13.598 2°56.096 4.7249 2.411334 25.28976 -0.848668
2005-03-09 16:15:36 51°13.594 2°56.105 4.7975 2.411965 25.297014 -0.848668
2005-03-09 16:16:36 51°13.594 2°56.103 4.9777 2.413121 25.29091 -0.848668